sensor_id;sensor_type;location;lat;lon;timestamp;pressure;altitude;pressure_sealevel;temperature;humidity
37856;BME280;23694;43.274;26.924;2023-05-10T00:00:09;99461.38;;;7.69;99.02
37856;BME280;23694;43.274;26.924;2023-05-10T00:02:35;99464.13;;;7.66;99.41
37856;BME280;23694;43.274;26.924;2023-05-10T00:05:01;99464.94;;;7.49;100.00
37856;BME280;23694;43.274;26.924;2023-05-10T00:07:27;99463.94;;;7.51;100.00
37856;BME280;23694;43.274;26.924;2023-05-10T00:09:53;99464.66;;;7.55;100.00
37856;BME280;23694;43.274;26.924;2023-05-10T00:12:19;99459.44;;;7.55;99.69
37856;BME280;23694;43.274;26.924;2023-05-10T00:14:45;99457.06;;;7.50;100.00
37856;BME280;23694;43.274;26.924;2023-05-10T00:17:11;99459.44;;;7.55;100.00
37856;BME280;23694;43.274;26.924;2023-05-10T00:19:37;99450.06;;;7.51;99.76
37856;BME280;23694;43.274;26.924;2023-05-10T00:22:04;99461.41;;;7.50;100.00
37856;BME280;23694;43.274;26.924;2023-05-10T00:24:30;99457.25;;;7.46;100.00
37856;BME280;23694;43.274;26.924;2023-05-10T00:26:56;99457.41;;;7.43;100.00
37856;BME280;23694;43.274;26.924;2023-05-10T00:29:22;99447.00;;;7.43;99.66
37856;BME280;23694;43.274;26.924;2023-05-10T00:31:48;99446.16;;;7.42;100.00
37856;BME280;23694;43.274;26.924;2023-05-10T00:34:14;99450.09;;;7.32;100.00
37856;BME280;23694;43.274;26.924;2023-05-10T00:36:40;99450.72;;;7.37;100.00
37856;BME280;23694;43.274;26.924;2023-05-10T00:39:06;99448.97;;;7.38;100.00
37856;BME280;23694;43.274;26.924;2023-05-10T00:41:32;99453.47;;;7.34;99.98
37856;BME280;23694;43.274;26.924;2023-05-10T00:43:59;99452.16;;;7.25;100.00
37856;BME280;23694;43.274;26.924;2023-05-10T00:46:26;99457.00;;;7.33;100.00
37856;BME280;23694;43.274;26.924;2023-05-10T00:48:52;99453.00;;;7.26;100.00
37856;BME280;23694;43.274;26.924;2023-05-10T00:51:19;99456.63;;;7.03;100.00
37856;BME280;23694;43.274;26.924;2023-05-10T00:53:45;99451.72;;;6.97;100.00
37856;BME280;23694;43.274;26.924;2023-05-10T00:56:12;99460.94;;;7.04;100.00
37856;BME280;23694;43.274;26.924;2023-05-10T00:58:39;99449.38;;;7.10;100.00
37856;BME280;23694;43.274;26.924;2023-05-10T01:01:05;99447.69;;;7.09;100.00
37856;BME280;23694;43.274;26.924;2023-05-10T01:03:32;99460.44;;;7.15;100.00
37856;BME280;23694;43.274;26.924;2023-05-10T01:05:58;99454.19;;;7.19;100.00
37856;BME280;23694;43.274;26.924;2023-05-10T01:08:25;99455.81;;;7.21;100.00
37856;BME280;23694;43.274;26.924;2023-05-10T01:10:52;99451.44;;;7.22;100.00
37856;BME280;23694;43.274;26.924;2023-05-10T01:16:01;99454.97;;;7.21;100.00
37856;BME280;23694;43.274;26.924;2023-05-10T01:18:30;99447.22;;;7.19;100.00
37856;BME280;23694;43.274;26.924;2023-05-10T01:23:51;99443.72;;;7.20;100.00
37856;BME280;23694;43.274;26.924;2023-05-10T01:26:33;99441.88;;;7.22;100.00
37856;BME280;23694;43.274;26.924;2023-05-10T01:32:14;99443.91;;;7.16;100.00
37856;BME280;23694;43.274;26.924;2023-05-10T01:35:18;99439.75;;;7.12;100.00
37856;BME280;23694;43.274;26.924;2023-05-10T01:37:56;99443.06;;;7.15;100.00
37856;BME280;23694;43.274;26.924;2023-05-10T01:40:36;99441.44;;;7.13;100.00
37856;BME280;23694;43.274;26.924;2023-05-10T01:43:08;99439.56;;;7.16;100.00
37856;BME280;23694;43.274;26.924;2023-05-10T01:48:26;99436.56;;;7.05;100.00
37856;BME280;23694;43.274;26.924;2023-05-10T01:50:54;99439.88;;;6.90;100.00
37856;BME280;23694;43.274;26.924;2023-05-10T01:53:22;99442.06;;;6.80;100.00
37856;BME280;23694;43.274;26.924;2023-05-10T01:55:52;99438.47;;;6.83;100.00
37856;BME280;23694;43.274;26.924;2023-05-10T01:58:30;99436.72;;;6.83;100.00
37856;BME280;23694;43.274;26.924;2023-05-10T02:01:00;99442.75;;;6.84;100.00
37856;BME280;23694;43.274;26.924;2023-05-10T02:03:28;99440.72;;;6.90;100.00
37856;BME280;23694;43.274;26.924;2023-05-10T02:05:55;99440.66;;;6.92;100.00
37856;BME280;23694;43.274;26.924;2023-05-10T02:08:22;99437.22;;;6.91;100.00
37856;BME280;23694;43.274;26.924;2023-05-10T02:10:52;99443.19;;;6.93;100.00
37856;BME280;23694;43.274;26.924;2023-05-10T02:13:19;99438.97;;;6.91;100.00
37856;BME280;23694;43.274;26.924;2023-05-10T02:15:47;99435.44;;;6.92;100.00
37856;BME280;23694;43.274;26.924;2023-05-10T02:18:14;99432.13;;;6.88;100.00
37856;BME280;23694;43.274;26.924;2023-05-10T02:20:42;99432.13;;;6.88;100.00
37856;BME280;23694;43.274;26.924;2023-05-10T02:23:09;99432.34;;;6.84;100.00
37856;BME280;23694;43.274;26.924;2023-05-10T02:25:37;99432.97;;;6.89;100.00
37856;BME280;23694;43.274;26.924;2023-05-10T02:28:05;99433.06;;;6.87;100.00
37856;BME280;23694;43.274;26.924;2023-05-10T02:30:33;99431.28;;;6.88;100.00
37856;BME280;23694;43.274;26.924;2023-05-10T02:33:01;99432.97;;;6.89;100.00
37856;BME280;23694;43.274;26.924;2023-05-10T02:35:30;99435.94;;;6.81;100.00
37856;BME280;23694;43.274;26.924;2023-05-10T02:37:59;99430.88;;;6.78;100.00
37856;BME280;23694;43.274;26.924;2023-05-10T02:40:26;99434.09;;;6.83;100.00
37856;BME280;23694;43.274;26.924;2023-05-10T02:42:54;99434.75;;;6.88;100.00
37856;BME280;23694;43.274;26.924;2023-05-10T02:45:25;99436.16;;;6.95;100.00
37856;BME280;23694;43.274;26.924;2023-05-10T02:47:54;99434.81;;;7.06;100.00
37856;BME280;23694;43.274;26.924;2023-05-10T02:50:21;99433.63;;;7.13;100.00
37856;BME280;23694;43.274;26.924;2023-05-10T02:52:50;99423.63;;;7.22;100.00
37856;BME280;23694;43.274;26.924;2023-05-10T02:55:22;99431.88;;;7.32;100.00
37856;BME280;23694;43.274;26.924;2023-05-10T02:57:57;99428.25;;;7.35;99.90
37856;BME280;23694;43.274;26.924;2023-05-10T03:00:24;99421.22;;;7.37;99.05
37856;BME280;23694;43.274;26.924;2023-05-10T03:02:51;99425.78;;;7.50;99.07
37856;BME280;23694;43.274;26.924;2023-05-10T03:05:17;99429.44;;;7.46;97.72
37856;BME280;23694;43.274;26.924;2023-05-10T03:07:43;99429.59;;;7.43;97.94
37856;BME280;23694;43.274;26.924;2023-05-10T03:10:10;99435.78;;;7.41;98.86
37856;BME280;23694;43.274;26.924;2023-05-10T03:20:22;99427.13;;;8.28;96.15
37856;BME280;23694;43.274;26.924;2023-05-10T03:22:55;99421.88;;;8.63;95.21
37856;BME280;23694;43.274;26.924;2023-05-10T03:25:26;99419.25;;;8.96;91.40
37856;BME280;23694;43.274;26.924;2023-05-10T03:27:53;99420.19;;;9.26;88.85
37856;BME280;23694;43.274;26.924;2023-05-10T03:30:20;99425.91;;;9.48;87.47
37856;BME280;23694;43.274;26.924;2023-05-10T03:32:46;99433.66;;;9.66;85.46
37856;BME280;23694;43.274;26.924;2023-05-10T03:35:13;99432.09;;;9.93;84.53
37856;BME280;23694;43.274;26.924;2023-05-10T03:37:39;99435.88;;;10.17;82.67
37856;BME280;23694;43.274;26.924;2023-05-10T03:40:06;99441.53;;;10.56;81.71
37856;BME280;23694;43.274;26.924;2023-05-10T03:42:32;99440.69;;;10.84;78.30
37856;BME280;23694;43.274;26.924;2023-05-10T03:44:58;99453.69;;;11.14;77.56
37856;BME280;23694;43.274;26.924;2023-05-10T03:47:24;99442.66;;;11.50;75.36
37856;BME280;23694;43.274;26.924;2023-05-10T03:49:50;99449.97;;;11.86;73.04
37856;BME280;23694;43.274;26.924;2023-05-10T03:52:16;99451.06;;;12.09;71.06
37856;BME280;23694;43.274;26.924;2023-05-10T03:54:42;99452.63;;;12.51;70.80
37856;BME280;23694;43.274;26.924;2023-05-10T03:57:08;99440.50;;;12.99;68.09
37856;BME280;23694;43.274;26.924;2023-05-10T03:59:35;99445.91;;;13.47;66.17
37856;BME280;23694;43.274;26.924;2023-05-10T04:02:01;99450.44;;;13.92;63.82
37856;BME280;23694;43.274;26.924;2023-05-10T04:04:27;99448.44;;;14.31;61.96
37856;BME280;23694;43.274;26.924;2023-05-10T04:06:53;99440.63;;;14.87;59.52
37856;BME280;23694;43.274;26.924;2023-05-10T04:09:20;99439.16;;;15.39;57.19
37856;BME280;23694;43.274;26.924;2023-05-10T04:11:46;99445.03;;;15.97;55.14
37856;BME280;23694;43.274;26.924;2023-05-10T04:14:12;99440.97;;;16.45;53.76
37856;BME280;23694;43.274;26.924;2023-05-10T04:16:38;99440.09;;;16.87;52.65
37856;BME280;23694;43.274;26.924;2023-05-10T04:19:04;99439.59;;;17.42;50.69
37856;BME280;23694;43.274;26.924;2023-05-10T04:21:30;99443.63;;;17.87;48.89
37856;BME280;23694;43.274;26.924;2023-05-10T04:23:56;99449.19;;;18.32;47.67
37856;BME280;23694;43.274;26.924;2023-05-10T04:26:22;99444.19;;;18.85;45.69
37856;BME280;23694;43.274;26.924;2023-05-10T04:28:48;99445.03;;;19.23;44.04
37856;BME280;23694;43.274;26.924;2023-05-10T04:31:14;99451.22;;;18.86;43.86
37856;BME280;23694;43.274;26.924;2023-05-10T04:33:40;99443.38;;;18.94;44.42
37856;BME280;23694;43.274;26.924;2023-05-10T04:36:07;99442.81;;;19.18;44.58
37856;BME280;23694;43.274;26.924;2023-05-10T04:38:33;99455.19;;;19.65;42.95
37856;BME280;23694;43.274;26.924;2023-05-10T04:41:07;99446.59;;;18.88;43.13
37856;BME280;23694;43.274;26.924;2023-05-10T04:43:33;99447.53;;;18.97;43.07
37856;BME280;23694;43.274;26.924;2023-05-10T04:45:59;99452.53;;;18.34;45.49
37856;BME280;23694;43.274;26.924;2023-05-10T04:48:25;99449.22;;;18.22;45.79
37856;BME280;23694;43.274;26.924;2023-05-10T04:50:51;99458.69;;;18.05;47.80
37856;BME280;23694;43.274;26.924;2023-05-10T04:53:18;99453.22;;;17.78;47.56
37856;BME280;23694;43.274;26.924;2023-05-10T04:55:44;99448.38;;;16.52;52.45
37856;BME280;23694;43.274;26.924;2023-05-10T04:58:10;99453.88;;;17.11;49.79
37856;BME280;23694;43.274;26.924;2023-05-10T05:00:36;99455.91;;;18.26;47.14
37856;BME280;23694;43.274;26.924;2023-05-10T05:03:02;99454.06;;;17.88;47.25
37856;BME280;23694;43.274;26.924;2023-05-10T05:05:28;99452.91;;;18.58;45.96
37856;BME280;23694;43.274;26.924;2023-05-10T05:07:54;99453.28;;;16.35;50.69
37856;BME280;23694;43.274;26.924;2023-05-10T05:10:20;99455.97;;;17.17;49.71
37856;BME280;23694;43.274;26.924;2023-05-10T05:12:46;99457.53;;;17.69;48.87
37856;BME280;23694;43.274;26.924;2023-05-10T05:15:12;99450.75;;;18.25;46.53
37856;BME280;23694;43.274;26.924;2023-05-10T05:17:38;99446.31;;;18.82;44.92
37856;BME280;23694;43.274;26.924;2023-05-10T05:20:04;99446.94;;;18.18;45.16
37856;BME280;23694;43.274;26.924;2023-05-10T05:22:31;99454.50;;;17.93;46.96
37856;BME280;23694;43.274;26.924;2023-05-10T05:24:57;99451.72;;;17.45;47.73
37856;BME280;23694;43.274;26.924;2023-05-10T05:27:28;99454.63;;;16.30;51.69
37856;BME280;23694;43.274;26.924;2023-05-10T05:29:55;99452.69;;;15.79;55.52
37856;BME280;23694;43.274;26.924;2023-05-10T05:32:22;99447.84;;;14.96;56.94
37856;BME280;23694;43.274;26.924;2023-05-10T05:34:48;99457.97;;;13.86;61.05
37856;BME280;23694;43.274;26.924;2023-05-10T05:37:15;99452.72;;;13.49;64.23
37856;BME280;23694;43.274;26.924;2023-05-10T05:39:41;99453.25;;;13.05;66.52
37856;BME280;23694;43.274;26.924;2023-05-10T05:42:11;99453.47;;;12.77;69.09
37856;BME280;23694;43.274;26.924;2023-05-10T05:44:38;99454.41;;;12.37;71.30
37856;BME280;23694;43.274;26.924;2023-05-10T05:47:05;99460.75;;;12.21;72.77
37856;BME280;23694;43.274;26.924;2023-05-10T05:49:32;99452.00;;;10.84;79.29
37856;BME280;23694;43.274;26.924;2023-05-10T05:51:59;99456.53;;;11.37;79.18
37856;BME280;23694;43.274;26.924;2023-05-10T05:54:26;99459.34;;;12.02;77.02
37856;BME280;23694;43.274;26.924;2023-05-10T05:56:59;99461.94;;;12.29;75.51
37856;BME280;23694;43.274;26.924;2023-05-10T05:59:26;99463.78;;;12.15;74.59
37856;BME280;23694;43.274;26.924;2023-05-10T06:01:52;99469.88;;;12.15;74.87
37856;BME280;23694;43.274;26.924;2023-05-10T06:04:18;99469.66;;;12.05;74.70
37856;BME280;23694;43.274;26.924;2023-05-10T06:06:44;99472.88;;;11.96;74.46
37856;BME280;23694;43.274;26.924;2023-05-10T06:09:11;99479.25;;;11.80;75.82
37856;BME280;23694;43.274;26.924;2023-05-10T06:11:37;99472.59;;;11.04;78.25
37856;BME280;23694;43.274;26.924;2023-05-10T06:14:04;99485.19;;;10.41;83.86
37856;BME280;23694;43.274;26.924;2023-05-10T06:16:30;99483.56;;;10.38;83.68
37856;BME280;23694;43.274;26.924;2023-05-10T06:18:56;99463.22;;;10.43;83.73
37856;BME280;23694;43.274;26.924;2023-05-10T06:21:22;99479.88;;;10.99;83.62
37856;BME280;23694;43.274;26.924;2023-05-10T06:23:49;99475.69;;;11.81;77.47
37856;BME280;23694;43.274;26.924;2023-05-10T06:26:15;99481.94;;;11.37;77.54
37856;BME280;23694;43.274;26.924;2023-05-10T06:28:41;99475.75;;;11.65;77.48
37856;BME280;23694;43.274;26.924;2023-05-10T06:31:07;99469.66;;;12.05;76.18
37856;BME280;23694;43.274;26.924;2023-05-10T06:33:33;99474.00;;;12.32;75.49
37856;BME280;23694;43.274;26.924;2023-05-10T06:35:59;99482.66;;;11.39;76.34
37856;BME280;23694;43.274;26.924;2023-05-10T06:38:26;99479.41;;;11.35;76.78
37856;BME280;23694;43.274;26.924;2023-05-10T06:40:52;99487.34;;;11.48;77.90
37856;BME280;23694;43.274;26.924;2023-05-10T06:43:18;99481.28;;;11.33;77.93
37856;BME280;23694;43.274;26.924;2023-05-10T06:45:44;99487.28;;;11.77;77.79
37856;BME280;23694;43.274;26.924;2023-05-10T06:48:10;99484.97;;;11.99;74.87
37856;BME280;23694;43.274;26.924;2023-05-10T06:50:36;99488.44;;;11.58;77.21
37856;BME280;23694;43.274;26.924;2023-05-10T06:53:02;99488.28;;;12.15;75.11
37856;BME280;23694;43.274;26.924;2023-05-10T06:55:28;99489.81;;;12.05;72.82
37856;BME280;23694;43.274;26.924;2023-05-10T06:57:55;99494.75;;;12.36;72.41
37856;BME280;23694;43.274;26.924;2023-05-10T07:00:21;99488.44;;;12.39;72.38
37856;BME280;23694;43.274;26.924;2023-05-10T07:02:47;99486.69;;;12.65;72.09
37856;BME280;23694;43.274;26.924;2023-05-10T07:05:13;99489.53;;;12.22;71.11
37856;BME280;23694;43.274;26.924;2023-05-10T07:07:39;99483.28;;;11.57;73.59
37856;BME280;23694;43.274;26.924;2023-05-10T07:10:06;99491.88;;;12.27;71.01
37856;BME280;23694;43.274;26.924;2023-05-10T07:12:33;99483.69;;;11.51;69.53
37856;BME280;23694;43.274;26.924;2023-05-10T07:14:59;99481.00;;;11.38;73.79
37856;BME280;23694;43.274;26.924;2023-05-10T07:17:25;99483.44;;;12.09;72.35
37856;BME280;23694;43.274;26.924;2023-05-10T07:19:51;99491.31;;;12.61;70.13
37856;BME280;23694;43.274;26.924;2023-05-10T07:22:17;99483.22;;;12.77;70.49
37856;BME280;23694;43.274;26.924;2023-05-10T07:24:43;99487.94;;;13.10;66.13
37856;BME280;23694;43.274;26.924;2023-05-10T07:27:09;99481.38;;;13.78;63.86
37856;BME280;23694;43.274;26.924;2023-05-10T07:29:35;99488.22;;;14.04;61.45
37856;BME280;23694;43.274;26.924;2023-05-10T07:32:02;99487.31;;;13.69;63.06
37856;BME280;23694;43.274;26.924;2023-05-10T07:34:28;99491.78;;;13.43;64.50
37856;BME280;23694;43.274;26.924;2023-05-10T07:36:58;99493.91;;;13.38;65.33
37856;BME280;23694;43.274;26.924;2023-05-10T07:39:24;99501.75;;;11.96;66.51
37856;BME280;23694;43.274;26.924;2023-05-10T07:41:50;99495.59;;;12.10;69.25
37856;BME280;23694;43.274;26.924;2023-05-10T07:44:16;99500.75;;;12.51;67.19
37856;BME280;23694;43.274;26.924;2023-05-10T07:46:44;99498.78;;;13.06;64.54
37856;BME280;23694;43.274;26.924;2023-05-10T07:49:10;99493.50;;;13.31;63.60
37856;BME280;23694;43.274;26.924;2023-05-10T07:51:36;99498.88;;;12.53;65.91
37856;BME280;23694;43.274;26.924;2023-05-10T07:54:03;99500.06;;;12.35;69.74
37856;BME280;23694;43.274;26.924;2023-05-10T07:56:32;99492.03;;;12.63;69.06
37856;BME280;23694;43.274;26.924;2023-05-10T07:58:59;99492.25;;;12.60;69.23
37856;BME280;23694;43.274;26.924;2023-05-10T08:01:26;99497.44;;;12.22;68.65
37856;BME280;23694;43.274;26.924;2023-05-10T08:03:52;99491.59;;;12.44;70.58
37856;BME280;23694;43.274;26.924;2023-05-10T08:06:20;99495.03;;;12.32;72.03
37856;BME280;23694;43.274;26.924;2023-05-10T08:08:47;99500.34;;;12.18;72.27
37856;BME280;23694;43.274;26.924;2023-05-10T08:11:19;99496.81;;;12.31;68.96
37856;BME280;23694;43.274;26.924;2023-05-10T08:13:46;99502.28;;;12.28;67.63
37856;BME280;23694;43.274;26.924;2023-05-10T08:16:13;99502.66;;;12.62;67.20
37856;BME280;23694;43.274;26.924;2023-05-10T08:18:39;99497.09;;;12.66;66.99
37856;BME280;23694;43.274;26.924;2023-05-10T08:21:06;99505.81;;;12.54;66.23
37856;BME280;23694;43.274;26.924;2023-05-10T08:23:32;99498.88;;;12.79;64.45
37856;BME280;23694;43.274;26.924;2023-05-10T08:25:59;99504.34;;;12.63;64.65
37856;BME280;23694;43.274;26.924;2023-05-10T08:28:25;99497.09;;;12.14;67.22
37856;BME280;23694;43.274;26.924;2023-05-10T08:30:51;99498.03;;;12.53;66.32
37856;BME280;23694;43.274;26.924;2023-05-10T08:33:18;99495.63;;;13.00;65.32
37856;BME280;23694;43.274;26.924;2023-05-10T08:35:44;99488.66;;;12.49;65.84
37856;BME280;23694;43.274;26.924;2023-05-10T08:38:10;99496.69;;;11.52;69.84
37856;BME280;23694;43.274;26.924;2023-05-10T08:40:37;99499.22;;;12.34;67.17
37856;BME280;23694;43.274;26.924;2023-05-10T08:43:08;99499.19;;;12.49;67.72
37856;BME280;23694;43.274;26.924;2023-05-10T08:45:44;99500.25;;;12.72;68.22
37856;BME280;23694;43.274;26.924;2023-05-10T08:48:13;99496.88;;;13.08;66.49
37856;BME280;23694;43.274;26.924;2023-05-10T08:50:41;99492.97;;;13.75;64.18
37856;BME280;23694;43.274;26.924;2023-05-10T08:53:12;99496.34;;;13.28;66.00
37856;BME280;23694;43.274;26.924;2023-05-10T08:55:40;99489.63;;;12.86;66.56
37856;BME280;23694;43.274;26.924;2023-05-10T08:58:08;99493.09;;;13.12;63.96
37856;BME280;23694;43.274;26.924;2023-05-10T09:00:36;99493.84;;;12.76;64.75
37856;BME280;23694;43.274;26.924;2023-05-10T09:03:05;99495.31;;;13.05;65.11
37856;BME280;23694;43.274;26.924;2023-05-10T09:05:32;99492.59;;;13.19;61.80
37856;BME280;23694;43.274;26.924;2023-05-10T09:07:58;99493.72;;;12.52;63.88
37856;BME280;23694;43.274;26.924;2023-05-10T09:10:28;99495.63;;;12.88;63.93
37856;BME280;23694;43.274;26.924;2023-05-10T09:12:56;99497.06;;;12.01;67.97
37856;BME280;23694;43.274;26.924;2023-05-10T09:15:23;99500.78;;;11.85;68.25
37856;BME280;23694;43.274;26.924;2023-05-10T09:17:49;99487.00;;;12.48;65.57
37856;BME280;23694;43.274;26.924;2023-05-10T09:20:16;99485.94;;;12.88;65.42
37856;BME280;23694;43.274;26.924;2023-05-10T09:22:43;99477.22;;;13.26;62.07
37856;BME280;23694;43.274;26.924;2023-05-10T09:25:11;99489.94;;;12.68;61.32
37856;BME280;23694;43.274;26.924;2023-05-10T09:27:39;99481.31;;;13.30;61.66
37856;BME280;23694;43.274;26.924;2023-05-10T09:30:07;99488.22;;;14.39;58.38
37856;BME280;23694;43.274;26.924;2023-05-10T09:32:44;99474.44;;;14.82;55.75
37856;BME280;23694;43.274;26.924;2023-05-10T09:35:15;99477.09;;;15.04;56.09
37856;BME280;23694;43.274;26.924;2023-05-10T09:37:43;99473.97;;;14.31;56.93
37856;BME280;23694;43.274;26.924;2023-05-10T09:40:15;99485.53;;;13.56;59.32
37856;BME280;23694;43.274;26.924;2023-05-10T09:42:43;99480.66;;;14.00;58.34
37856;BME280;23694;43.274;26.924;2023-05-10T09:45:16;99473.78;;;14.21;58.16
37856;BME280;23694;43.274;26.924;2023-05-10T09:47:42;99489.75;;;13.59;58.24
37856;BME280;23694;43.274;26.924;2023-05-10T09:50:09;99473.53;;;13.89;58.79
37856;BME280;23694;43.274;26.924;2023-05-10T09:52:55;99469.13;;;14.59;57.17
37856;BME280;23694;43.274;26.924;2023-05-10T09:58:01;99461.88;;;12.56;60.58
37856;BME280;23694;43.274;26.924;2023-05-10T10:00:28;99469.44;;;13.24;59.87
37856;BME280;23694;43.274;26.924;2023-05-10T10:02:58;99467.00;;;13.09;60.36
37856;BME280;23694;43.274;26.924;2023-05-10T10:05:35;99458.13;;;13.72;58.26
37856;BME280;23694;43.274;26.924;2023-05-10T10:08:05;99469.44;;;14.09;57.32
37856;BME280;23694;43.274;26.924;2023-05-10T10:10:33;99471.81;;;13.77;56.67
37856;BME280;23694;43.274;26.924;2023-05-10T10:12:59;99464.75;;;14.36;55.42
37856;BME280;23694;43.274;26.924;2023-05-10T10:15:26;99458.09;;;14.54;54.89
37856;BME280;23694;43.274;26.924;2023-05-10T10:17:52;99452.84;;;14.77;53.91
37856;BME280;23694;43.274;26.924;2023-05-10T10:20:21;99454.19;;;14.94;53.48
37856;BME280;23694;43.274;26.924;2023-05-10T10:22:48;99449.13;;;14.57;52.37
37856;BME280;23694;43.274;26.924;2023-05-10T10:25:15;99457.63;;;13.67;57.24
37856;BME280;23694;43.274;26.924;2023-05-10T10:35:29;99449.72;;;14.61;54.44
37856;BME280;23694;43.274;26.924;2023-05-10T10:37:56;99447.94;;;13.67;57.20
37856;BME280;23694;43.274;26.924;2023-05-10T10:40:27;99444.53;;;13.78;56.88
37856;BME280;23694;43.274;26.924;2023-05-10T10:42:54;99440.75;;;13.45;56.87
37856;BME280;23694;43.274;26.924;2023-05-10T10:45:21;99449.44;;;13.58;56.79
37856;BME280;23694;43.274;26.924;2023-05-10T10:47:48;99439.25;;;14.13;53.32
37856;BME280;23694;43.274;26.924;2023-05-10T10:50:14;99434.28;;;14.67;51.43
37856;BME280;23694;43.274;26.924;2023-05-10T10:52:46;99432.72;;;14.76;51.87
37856;BME280;23694;43.274;26.924;2023-05-10T11:02:45;99433.13;;;14.36;51.32
37856;BME280;23694;43.274;26.924;2023-05-10T11:08:32;99434.66;;;13.92;53.22
37856;BME280;23694;43.274;26.924;2023-05-10T11:13:33;99432.28;;;14.01;52.26
37856;BME280;23694;43.274;26.924;2023-05-10T11:18:37;99423.81;;;14.08;51.72
37856;BME280;23694;43.274;26.924;2023-05-10T11:21:03;99419.75;;;14.15;50.92
37856;BME280;23694;43.274;26.924;2023-05-10T11:26:13;99420.63;;;14.62;49.37
37856;BME280;23694;43.274;26.924;2023-05-10T11:31:10;99415.09;;;14.54;50.41
37856;BME280;23694;43.274;26.924;2023-05-10T11:33:53;99410.19;;;14.94;48.96
37856;BME280;23694;43.274;26.924;2023-05-10T11:36:22;99410.66;;;14.88;49.24
37856;BME280;23694;43.274;26.924;2023-05-10T11:38:49;99418.22;;;15.04;48.58
37856;BME280;23694;43.274;26.924;2023-05-10T11:41:17;99403.69;;;14.42;48.69
37856;BME280;23694;43.274;26.924;2023-05-10T11:43:45;99407.97;;;14.32;50.65
37856;BME280;23694;43.274;26.924;2023-05-10T11:46:13;99408.44;;;14.37;50.94
37856;BME280;23694;43.274;26.924;2023-05-10T11:48:39;99411.75;;;14.63;52.32
37856;BME280;23694;43.274;26.924;2023-05-10T11:51:10;99401.06;;;14.42;52.73
37856;BME280;23694;43.274;26.924;2023-05-10T11:53:36;99400.47;;;15.17;50.65
37856;BME280;23694;43.274;26.924;2023-05-10T11:56:05;99407.06;;;14.44;51.31
37856;BME280;23694;43.274;26.924;2023-05-10T11:58:32;99398.47;;;14.29;52.67
37856;BME280;23694;43.274;26.924;2023-05-10T12:00:59;99406.34;;;15.20;51.51
37856;BME280;23694;43.274;26.924;2023-05-10T12:03:26;99387.41;;;15.59;48.72
37856;BME280;23694;43.274;26.924;2023-05-10T12:05:54;99391.91;;;15.36;49.01
37856;BME280;23694;43.274;26.924;2023-05-10T12:08:22;99399.28;;;15.53;47.93
37856;BME280;23694;43.274;26.924;2023-05-10T12:10:49;99395.16;;;15.28;47.90
37856;BME280;23694;43.274;26.924;2023-05-10T12:13:15;99388.34;;;15.26;48.89
37856;BME280;23694;43.274;26.924;2023-05-10T12:15:43;99381.66;;;14.43;49.95
37856;BME280;23694;43.274;26.924;2023-05-10T12:18:10;99376.28;;;14.45;50.49
37856;BME280;23694;43.274;26.924;2023-05-10T12:20:37;99380.94;;;14.64;50.54
37856;BME280;23694;43.274;26.924;2023-05-10T12:23:03;99395.22;;;14.61;53.00
37856;BME280;23694;43.274;26.924;2023-05-10T12:25:33;99415.81;;;14.45;53.23
37856;BME280;23694;43.274;26.924;2023-05-10T12:28:02;99384.81;;;14.24;53.50
37856;BME280;23694;43.274;26.924;2023-05-10T12:30:31;99389.09;;;14.14;53.26
37856;BME280;23694;43.274;26.924;2023-05-10T12:33:17;99388.88;;;14.28;52.87
37856;BME280;23694;43.274;26.924;2023-05-10T12:35:51;99382.50;;;14.09;53.14
37856;BME280;23694;43.274;26.924;2023-05-10T12:38:32;99411.19;;;13.89;54.78
37856;BME280;23694;43.274;26.924;2023-05-10T12:41:04;99388.34;;;14.01;54.74
37856;BME280;23694;43.274;26.924;2023-05-10T12:43:31;99395.56;;;14.21;54.59
37856;BME280;23694;43.274;26.924;2023-05-10T12:45:57;99393.53;;;14.14;55.47
37856;BME280;23694;43.274;26.924;2023-05-10T12:48:24;99384.56;;;14.16;55.07
37856;BME280;23694;43.274;26.924;2023-05-10T12:50:50;99382.56;;;14.31;52.37
37856;BME280;23694;43.274;26.924;2023-05-10T12:53:16;99379.59;;;13.89;55.36
37856;BME280;23694;43.274;26.924;2023-05-10T12:55:43;99370.13;;;14.33;53.84
37856;BME280;23694;43.274;26.924;2023-05-10T12:58:10;99380.69;;;14.44;55.68
37856;BME280;23694;43.274;26.924;2023-05-10T13:00:36;99379.75;;;14.68;55.79
37856;BME280;23694;43.274;26.924;2023-05-10T13:03:04;99372.44;;;14.60;55.84
37856;BME280;23694;43.274;26.924;2023-05-10T13:05:33;99366.53;;;14.34;55.32
37856;BME280;23694;43.274;26.924;2023-05-10T13:08:00;99367.44;;;14.22;56.26
37856;BME280;23694;43.274;26.924;2023-05-10T13:10:26;99361.75;;;14.73;54.97
37856;BME280;23694;43.274;26.924;2023-05-10T13:12:52;99352.31;;;14.70;54.30
37856;BME280;23694;43.274;26.924;2023-05-10T13:15:18;99365.25;;;14.62;55.93
37856;BME280;23694;43.274;26.924;2023-05-10T13:17:44;99353.50;;;14.77;55.97
37856;BME280;23694;43.274;26.924;2023-05-10T13:20:11;99372.78;;;14.89;54.72
37856;BME280;23694;43.274;26.924;2023-05-10T13:22:37;99347.47;;;14.42;55.49
37856;BME280;23694;43.274;26.924;2023-05-10T13:25:03;99362.63;;;14.51;54.80
37856;BME280;23694;43.274;26.924;2023-05-10T13:27:29;99348.00;;;14.58;55.11
37856;BME280;23694;43.274;26.924;2023-05-10T13:29:55;99352.03;;;14.40;55.23
37856;BME280;23694;43.274;26.924;2023-05-10T13:32:21;99351.09;;;14.52;55.24
37856;BME280;23694;43.274;26.924;2023-05-10T13:34:47;99359.69;;;14.32;54.11
37856;BME280;23694;43.274;26.924;2023-05-10T13:37:13;99351.06;;;14.41;53.95
37856;BME280;23694;43.274;26.924;2023-05-10T13:39:39;99350.25;;;14.40;53.99
37856;BME280;23694;43.274;26.924;2023-05-10T13:42:05;99349.78;;;14.46;53.99